Data for 05/16/2005

Time Sea-Level Adjusted Pressure Absolute Pressure Temperature Relative Humidity Dew Point   
(mb) (inHg) (mb) (inHg) (C) (F) (%) (C) (F)
00:05 1010 29.83 839 24.78 13.2 55.7 68 7.4 45.2
00:10 1010 29.83 839 24.78 13.1 55.7 67 7.1 44.8
00:15 1010 29.83 839 24.78 13.1 55.6 68 7.3 45.2
00:20 1010 29.83 839 24.78 13 55.4 67 7.1 44.8
00:25 1010 29.83 839 24.78 13 55.4 67 7.1 44.8
00:30 1010 29.83 839 24.78 13 55.3 68 7.3 45.2
00:35 1010 29.83 839 24.78 13 55.4 68 7.3 45.1
00:40 1010 29.83 839 24.78 13 55.3 68 7.3 45.2
00:45 1010 29.83 839 24.78 13.4 56.2 66 7.2 44.9
00:50 1010 29.83 839 24.78 13.7 56.7 66 7.6 45.6
00:55 1010 29.83 839 24.78 13.2 55.7 69 7.6 45.6
01:00 1010 29.83 839 24.78 12.8 55 71 7.7 45.9
01:05 1010 29.83 839 24.78 12.6 54.6 70 7.3 45.1
01:10 1010 29.83 839 24.78 12.6 54.7 72 7.7 45.8
01:15 1010 29.83 839 24.78 12.6 54.6 70 7.2 44.9
01:20 1010 29.83 839 24.78 12.5 54.6 71 7.4 45.4
01:25 1010 29.83 839 24.78 12.3 54.2 72 7.4 45.4
01:30 1010 29.83 839 24.78 12.2 54 72 7.4 45.4
01:35 1010 29.83 839 24.78 12.2 53.9 72 7.4 45.3
01:40 1010 29.83 839 24.78 12.1 53.7 74 7.5 45.6
01:45 1009 29.8 839 24.78 11.9 53.5 74 7.5 45.5
01:50 1009 29.8 839 24.78 11.9 53.4 75 7.6 45.6
01:55 1009 29.8 839 24.78 11.9 53.4 74 7.5 45.4
02:00 1009 29.8 839 24.78 12 53.6 74 7.6 45.6
02:05 1009 29.8 839 24.78 12 53.5 75 7.8 46
02:10 1009 29.8 838 24.75 11.9 53.5 74 7.5 45.6
02:15 1009 29.8 838 24.75 12 53.5 75 7.7 45.8
02:20 1009 29.8 838 24.75 11.9 53.4 75 7.6 45.6
02:25 1009 29.8 838 24.75 11.9 53.4 73 7.3 45.1
02:30 1009 29.8 838 24.75 12 53.6 74 7.5 45.4
02:35 1009 29.8 838 24.75 11.9 53.4 74 7.5 45.5
02:40 1009 29.8 838 24.75 11.8 53.2 76 7.7 45.8
02:45 1009 29.8 838 24.75 11.6 53 77 7.7 45.9
02:50 1009 29.8 838 24.75 11.7 53 76 7.6 45.7
02:55 1009 29.8 838 24.75 11.7 53 75 7.5 45.5
03:00 1009 29.8 838 24.75 11.6 53 75 7.4 45.4
03:05 1008 29.77 838 24.75 11.6 52.8 77 7.7 45.8
03:10 1008 29.77 838 24.75 11.4 52.5 77 7.6 45.7
03:15 1008 29.77 838 24.75 11.4 52.5 77 7.5 45.5
03:20 1008 29.77 838 24.75 11.4 52.6 76 7.4 45.3
03:25 1008 29.77 838 24.75 11.6 52.8 76 7.4 45.4
03:30 1008 29.77 838 24.75 11.5 52.8 76 7.5 45.5
03:35 1008 29.77 838 24.75 11.5 52.6 76 7.4 45.4
03:40 1008 29.77 837 24.72 11.5 52.6 76 7.5 45.4
03:45 1008 29.77 837 24.72 11.5 52.6 76 7.5 45.4
03:50 1008 29.77 837 24.72 11.5 52.6 76 7.4 45.4
03:55 1008 29.77 837 24.72 11.6 52.8 74 7.1 44.9
04:00 1008 29.77 837 24.72 11.8 53.2 73 7.1 44.8
04:05 1008 29.77 837 24.72 11.9 53.3 73 7.2 45
04:10 1008 29.77 837 24.72 11.8 53.2 73 7.2 44.9
04:15 1008 29.77 837 24.72 11.8 53.2 73 7.2 45
04:20 1008 29.77 837 24.72 11.7 53 74 7.2 44.9
04:25 1008 29.77 837 24.72 11.8 53.2 75 7.6 45.6
04:30 1008 29.77 837 24.72 11.9 53.3 73 7.2 45
04:35 1008 29.77 837 24.72 11.8 53.2 74 7.3 45.1
04:40 1008 29.77 837 24.72 11.6 52.8 76 7.4 45.4
04:45 1008 29.77 837 24.72 11.3 52.3 77 7.5 45.5
04:50 1008 29.77 837 24.72 11.1 51.9 78 7.3 45.2
04:55 1008 29.77 837 24.72 11.2 52.2 77 7.3 45.1
05:00 1008 29.77 837 24.72 11.3 52.4 76 7.2 45
05:05 1008 29.77 837 24.72 11.3 52.4 75 7 44.6
05:10 1008 29.77 837 24.72 11.4 52.5 74 7 44.6
05:15 1008 29.77 837 24.72 11.5 52.7 74 7 44.6
05:20 1008 29.77 837 24.72 11.6 52.8 73 6.9 44.5
05:25 1008 29.77 837 24.72 11.7 53 73 7 44.5
05:30 1008 29.77 837 24.72 11.7 53 73 7 44.5
05:35 1008 29.77 837 24.72 11.6 52.8 74 7.1 44.8
05:40 1008 29.77 837 24.72 11.5 52.7 74 7.1 44.8
05:45 1008 29.77 837 24.72 11.4 52.6 74 7 44.6
05:50 1008 29.77 837 24.72 11.5 52.6 75 7.1 44.8
05:55 1008 29.77 837 24.72 11.4 52.5 75 7.2 44.9
06:00 1008 29.77 837 24.72 11.2 52.2 76 7.2 44.9
06:05 1008 29.77 837 24.72 11.2 52.1 75 7 44.7
06:10 1008 29.77 837 24.72 11.2 52.1 76 7.1 44.7
06:15 1008 29.77 837 24.72 11.1 52 76 7 44.6
06:20 1007 29.74 837 24.72 11.2 52.1 76 7.1 44.8
06:25 1007 29.74 837 24.72 11.2 52.1 76 7.1 44.8
06:30 1007 29.74 837 24.72 11.2 52.1 75 6.9 44.5
06:35 1007 29.74 837 24.72 11.3 52.4 75 7.1 44.9
06:40 1007 29.74 837 24.72 11.4 52.5 73 6.8 44.3
06:45 1007 29.74 836 24.69 11.5 52.7 73 6.9 44.3
06:50 1007 29.74 836 24.69 11.5 52.7 72 6.7 44.1
06:55 1007 29.74 836 24.69 11.6 52.9 72 6.8 44.3
07:00 1007 29.74 836 24.69 11.7 53 72 6.8 44.2
07:05 1007 29.74 836 24.69 11.7 53.1 71 6.8 44.2
07:10 1007 29.74 836 24.69 11.8 53.2 72 7 44.6
07:15 1007 29.74 836 24.69 11.8 53.2 72 6.9 44.4
07:20 1007 29.74 836 24.69 11.9 53.3 71 6.8 44.3
07:25 1007 29.74 836 24.69 11.9 53.4 71 6.9 44.4
07:30 1007 29.74 836 24.69 12 53.7 70 6.7 44
07:35 1007 29.74 836 24.69 12.2 53.9 71 7.2 44.9
07:40 1007 29.74 836 24.69 12.2 54 70 7 44.5
07:45 1007 29.74 836 24.69 12.3 54.2 70 7.1 44.7
07:50 1007 29.74 836 24.69 12.3 54.1 69 6.9 44.4
07:55 1007 29.74 836 24.69 12.5 54.5 70 7.1 44.8
08:00 1007 29.74 836 24.69 12.6 54.6 69 7.1 44.9
08:05 1007 29.74 836 24.69 12.7 54.9 69 7.2 45
08:10 1007 29.74 836 24.69 12.8 55 69 7.4 45.3
08:15 1007 29.74 836 24.69 13 55.3 69 7.4 45.3
08:20 1007 29.74 836 24.69 13.1 55.5 69 7.5 45.5
08:25 1007 29.74 836 24.69 13.1 55.5 68 7.4 45.4
08:30 1007 29.74 836 24.69 13.1 55.5 68 7.4 45.3
08:35 1007 29.74 836 24.69 13.1 55.6 67 7.1 44.8
08:40 1007 29.74 836 24.69 13.2 55.8 66 7.1 44.8
08:45 1007 29.74 836 24.69 13.3 56 67 7.3 45.1
08:50 1007 29.74 836 24.69 13.4 56.1 66 7.2 45
08:55 1007 29.74 836 24.69 13.6 56.4 65 7.3 45.1
09:00 1007 29.74 836 24.69 13.7 56.7 64 7.1 44.8
09:05 1007 29.74 836 24.69 14.1 57.4 63 7.3 45.2
09:10 1006 29.71 836 24.69 14.5 58.1 62 7.3 45.2
09:15 1006 29.71 836 24.69 14.8 58.6 61 7.5 45.5
09:20 1006 29.71 835 24.66 14.8 58.6 61 7.5 45.5
09:25 1006 29.71 835 24.66 14.9 58.9 61 7.5 45.5
09:30 1006 29.71 835 24.66 15.2 59.3 60 7.5 45.4
09:35 1006 29.71 835 24.66 15.9 60.6 56 7.3 45.2
09:40 1006 29.71 835 24.66 16.8 62.2 54 7.4 45.3
09:45 1006 29.71 835 24.66 16.7 62.1 56 8 46.3
09:50 1006 29.71 835 24.66 16.4 61.5 55 7.3 45.2
09:55 1006 29.71 835 24.66 16.6 62 55 7.6 45.6
10:00 1006 29.71 835 24.66 17 62.6 54 7.7 45.8
10:05 1005 29.68 835 24.66 17.4 63.4 52 7.7 45.8
10:10 1005 29.68 835 24.66 17.4 63.3 52 7.4 45.4
10:15 1005 29.68 835 24.66 17 62.7 54 7.6 45.8
10:20 1005 29.68 834 24.63 17.3 63.2 52 7.4 45.3
10:25 1005 29.68 834 24.63 18.2 64.7 50 7.6 45.7
10:30 1005 29.68 834 24.63 19 66.3 47 7.6 45.7
10:35 1005 29.68 834 24.63 18.6 65.5 48 7.6 45.7
10:40 1005 29.68 834 24.63 18.8 65.9 45 6.9 44.4
10:45 1005 29.68 834 24.63 18.9 65.9 44 6.6 43.8
10:50 1005 29.68 834 24.63 18.6 65.4 44 6.3 43.3
10:55 1005 29.68 834 24.63 18.5 65.3 44 6 42.7
11:00 1005 29.68 834 24.63 18.4 65.1 46 6.7 44.1
11:05 1005 29.68 834 24.63 18.2 64.8 45 6.3 43.3
11:10 1005 29.68 834 24.63 18.3 64.9 47 6.8 44.2
11:15 1005 29.68 834 24.63 18 64.4 46 6.4 43.6
11:20 1005 29.68 834 24.63 18.4 65 45 6.4 43.5
11:25 1005 29.68 834 24.63 18.4 65.1 51 8.2 46.7
11:30 1005 29.68 834 24.63 18.3 65 46 6.6 43.8
11:35 1005 29.68 834 24.63 18.2 64.8 46 6.7 44
11:40 1004 29.65 834 24.63 18.2 64.8 46 6.5 43.8
11:45 1004 29.65 834 24.63 18.2 64.7 46 6.4 43.5
11:50 1004 29.65 833 24.6 18.1 64.5 47 6.7 44.1
11:55 1004 29.65 833 24.6 18.2 64.7 46 6.5 43.6
12:00 1004 29.65 833 24.6 18.9 65.9 44 6.3 43.4
12:05 1004 29.65 833 24.6 19.3 66.7 43 6.4 43.5
12:10 1004 29.65 833 24.6 19.2 66.6 44 6.7 44
12:15 1004 29.65 833 24.6 18.9 66.1 44 6.5 43.7
12:20 1004 29.65 833 24.6 19.1 66.4 42 6.1 43
12:25 1004 29.65 833 24.6 19.6 67.4 41 6.1 43
12:30 1004 29.65 833 24.6 19.6 67.2 45 7.4 45.3
12:35 1003 29.62 833 24.6 18.9 66 45 6.9 44.5
12:40 1003 29.62 833 24.6 18.7 65.7 46 7 44.5
12:45 1003 29.62 832 24.57 18.8 65.8 44 6.4 43.5
12:50 1003 29.62 832 24.57 18.4 65.2 46 6.6 43.9
12:55 1003 29.62 832 24.57 18.6 65.5 44 6.4 43.5
13:00 1003 29.62 832 24.57 19 66.1 43 6.4 43.4
13:05 1003 29.62 832 24.57 19.1 66.4 43 6.3 43.4
13:10 1003 29.62 832 24.57 18.9 66.1 44 6.4 43.6
13:15 1003 29.62 832 24.57 19.1 66.4 43 6.3 43.4
13:20 1003 29.62 832 24.57 19 66.3 43 6.5 43.6
13:25 1003 29.62 832 24.57 18.5 65.3 47 7.1 44.7
13:30 1002 29.59 832 24.57 18.5 65.3 46 6.7 44.1
13:35 1002 29.59 832 24.57 18.5 65.4 45 6.6 43.8
13:40 1002 29.59 832 24.57 18.7 65.6 43 6 42.8
13:45 1002 29.59 831 24.54 18.7 65.7 45 6.6 43.8
13:50 1002 29.59 831 24.54 18.8 65.8 46 7 44.7
13:55 1002 29.59 831 24.54 18.7 65.6 46 7 44.6
14:00 1002 29.59 831 24.54 18.3 65 48 7.1 44.8
14:05 1002 29.59 831 24.54 18.1 64.6 47 6.8 44.3
14:10 1002 29.59 831 24.54 17.9 64.2 49 7 44.6
14:15 1002 29.59 831 24.54 17.8 64.1 49 7.1 44.8
14:20 1002 29.59 831 24.54 17.7 63.9 49 7 44.6
14:25 1002 29.59 831 24.54 17.5 63.6 50 7.2 44.9
14:30 1002 29.59 831 24.54 17.3 63.1 52 7.3 45.1
14:35 1002 29.59 831 24.54 17.1 62.8 52 7.2 44.9
14:40 1002 29.59 831 24.54 17 62.6 53 7.4 45.4
14:45 1002 29.59 831 24.54 16.8 62.3 53 7.2 44.9
14:50 1002 29.59 831 24.54 16.9 62.5 53 7.5 45.5
14:55 1002 29.59 831 24.54 16.8 62.2 54 7.6 45.7
15:00 1002 29.59 831 24.54 16.7 62.1 55 7.7 45.9
15:05 1002 29.59 831 24.54 16.7 62.1 54 7.5 45.6
15:10 1002 29.59 831 24.54 17 62.5 55 7.9 46.2
15:15 1002 29.59 831 24.54 17.1 62.9 57 8.8 47.8
15:20 1002 29.59 831 24.54 17.5 63.4 48 6.4 43.5
15:25 1002 29.59 831 24.54 17.5 63.5 48 6.6 43.9
15:30 1002 29.59 831 24.54 17.5 63.6 49 6.8 44.3
15:35 1002 29.59 831 24.54 17.2 62.9 52 7.2 45
15:40 1002 29.59 831 24.54 17.1 62.7 51 6.8 44.3
15:45 1002 29.59 831 24.54 17.2 62.9 51 6.9 44.5
15:50 1001 29.56 831 24.54 17.3 63.2 50 7 44.5
15:55 1001 29.56 830 24.51 17.4 63.3 49 6.6 43.9
16:00 1001 29.56 830 24.51 17.5 63.5 48 6.6 43.9
16:05 1001 29.56 830 24.51 17.3 63.2 49 6.7 44
16:10 1001 29.56 830 24.51 17.4 63.2 49 6.6 43.8
16:15 1001 29.56 830 24.51 17.5 63.5 48 6.6 43.8
16:20 1001 29.56 830 24.51 17.6 63.6 49 6.7 44.1
16:25 1001 29.56 830 24.51 17.7 63.9 47 6.4 43.6
16:30 1001 29.56 830 24.51 17.5 63.5 47 6.2 43.2
16:35 1000 29.53 830 24.51 17.7 63.8 47 6.3 43.4
16:40 1000 29.53 830 24.51 17.8 64.1 47 6.5 43.7
16:45 1000 29.53 829 24.48 17.8 64 47 6.4 43.5
16:50 1000 29.53 829 24.48 17.9 64.2 47 6.4 43.6
16:55 1000 29.53 829 24.48 18 64.3 47 6.5 43.7
17:00 1000 29.53 829 24.48 17.7 63.8 46 6.1 42.9
17:05 1000 29.53 829 24.48 17.6 63.8 45 5.8 42.5
17:10 1000 29.53 829 24.48 17.5 63.6 47 6.2 43.1
17:15 1000 29.53 829 24.48 17.2 63 49 6.4 43.6
17:20 1000 29.53 829 24.48 17 62.6 49 6.4 43.6
17:25 1000 29.53 829 24.48 16.9 62.5 51 6.8 44.2
17:30 1000 29.53 830 24.51 16.8 62.2 52 6.9 44.4
17:35 1000 29.53 830 24.51 16.7 62 52 6.8 44.3
17:40 1000 29.53 830 24.51 16.7 62.1 53 7.3 45.2
17:45 1000 29.53 830 24.51 16.9 62.3 52 7 44.6
17:50 1000 29.53 830 24.51 17 62.5 52 7 44.7
17:55 1000 29.53 830 24.51 17 62.5 52 7.1 44.7
18:00 1000 29.53 829 24.48 17 62.6 52 7.1 44.7
18:05 1000 29.53 829 24.48 17.3 63.1 49 6.7 44
18:10 1000 29.53 829 24.48 17.3 63.2 51 7.1 44.8
18:15 1000 29.53 829 24.48 17.2 63 50 6.7 44.1
18:20 1000 29.53 829 24.48 17.2 62.9 48 6.2 43.1
18:25 1000 29.53 829 24.48 17.4 63.3 46 5.9 42.6
18:30 1000 29.53 829 24.48 17.3 63.2 51 7.4 45.2
18:35 1000 29.53 829 24.48 17.3 63.1 46 5.7 42.2
18:40 1000 29.53 829 24.48 17.5 63.5 45 5.6 42.1
18:45 1000 29.53 829 24.48 17.5 63.6 46 5.9 42.6
18:50 1000 29.53 829 24.48 17.9 64.1 45 5.8 42.5
18:55 1000 29.53 829 24.48 17.7 63.9 47 6.5 43.7
19:00 999 29.5 829 24.48 17.4 63.3 50 7 44.6
19:05 999 29.5 829 24.48 17.1 62.7 48 6 42.9
19:10 999 29.5 829 24.48 17.1 62.8 51 7 44.5
19:15 999 29.5 829 24.48 16.8 62.2 54 7.4 45.3
19:20 999 29.5 828 24.45 16.3 61.4 53 7 44.5
19:25 999 29.5 828 24.45 16.3 61.3 53 6.7 44
19:30 999 29.5 828 24.45 16.2 61.2 53 6.7 44
19:35 999 29.5 828 24.45 16.3 61.3 52 6.6 43.8
19:40 999 29.5 828 24.45 16.3 61.3 53 6.7 44
19:45 999 29.5 828 24.45 16.2 61.1 52 6.5 43.8
19:50 999 29.5 828 24.45 16.4 61.4 50 6 42.9
19:55 999 29.5 828 24.45 16.5 61.7 49 5.9 42.5
20:00 999 29.5 828 24.45 16.6 61.9 49 5.9 42.6
20:05 999 29.5 828 24.45 16.6 61.9 49 6 42.9
20:10 999 29.5 828 24.45 16.5 61.8 49 5.9 42.6
20:15 999 29.5 828 24.45 16.6 61.8 49 5.8 42.4
20:20 999 29.5 828 24.45 16.4 61.5 50 6 42.8
20:25 999 29.5 828 24.45 16.3 61.4 50 6 42.9
20:30 999 29.5 828 24.45 16.2 61.2 51 6.1 42.9
20:35 999 29.5 828 24.45 16.1 61 52 6.2 43.2
20:40 999 29.5 828 24.45 16 60.7 51 6 42.9
20:45 999 29.5 828 24.45 15.9 60.6 53 6.3 43.3
20:50 999 29.5 828 24.45 15.6 60.1 55 6.8 44.2
20:55 999 29.5 828 24.45 15.3 59.6 55 6.5 43.8
21:00 999 29.5 828 24.45 15.2 59.4 56 6.5 43.7
21:05 999 29.5 828 24.45 15.2 59.4 56 6.5 43.7
21:10 999 29.5 828 24.45 15.2 59.3 56 6.4 43.6
21:15 999 29.5 828 24.45 15.2 59.3 57 6.7 44
21:20 999 29.5 828 24.45 15 58.9 56 6.4 43.5
21:25 999 29.5 828 24.45 14.9 58.8 57 6.5 43.7
21:30 999 29.5 828 24.45 14.8 58.7 58 6.7 44.1
21:35 999 29.5 828 24.45 14.6 58.3 59 6.8 44.3
21:40 999 29.5 828 24.45 14.4 58 60 6.8 44.2
21:45 999 29.5 828 24.45 14.5 58 59 6.6 43.9
21:50 999 29.5 828 24.45 14.7 58.5 59 6.9 44.3
21:55 999 29.5 828 24.45 14.7 58.5 59 6.9 44.3
22:00 999 29.5 828 24.45 14.6 58.2 60 6.9 44.4
22:05 999 29.5 828 24.45 14.4 57.9 60 6.8 44.3
22:10 999 29.5 828 24.45 14.3 57.8 61 6.9 44.4
22:15 999 29.5 828 24.45 14.3 57.7 63 7.4 45.3
22:20 999 29.5 828 24.45 14.1 57.5 62 7.1 44.7
22:25 999 29.5 828 24.45 14 57.2 62 7 44.6
22:30 999 29.5 828 24.45 13.9 56.9 63 6.9 44.4
22:35 999 29.5 828 24.45 13.7 56.6 64 7.1 44.7
22:40 999 29.5 828 24.45 13.4 56.2 66 7.2 44.9
22:45 999 29.5 828 24.45 13.6 56.5 71 8.6 47.4
22:50 999 29.5 828 24.45 13.5 56.2 68 7.7 45.9
22:55 999 29.5 828 24.45 13.2 55.8 69 7.7 45.8
23:00 999 29.5 828 24.45 13.4 56.1 71 8.2 46.8
23:05 999 29.5 828 24.45 13.4 56.2 70 8.2 46.8
23:10 999 29.5 828 24.45 13.5 56.2 70 8.2 46.8
23:15 999 29.5 828 24.45 13.4 56 74 8.9 48
23:20 999 29.5 828 24.45 13.4 56.2 69 7.9 46.3
23:25 999 29.5 828 24.45 13.3 55.9 71 8.2 46.8
23:30 999 29.5 828 24.45 13.3 56 74 8.9 48.1
23:35 998 29.47 828 24.45 13.6 56.4 66 7.5 45.4
23:40 998 29.47 828 24.45 13.7 56.7 64 7.2 44.9
23:45 998 29.47 828 24.45 13.7 56.7 64 7.2 44.9
23:50 998 29.47 828 24.45 13.7 56.7 64 7.2 44.9
23:55 998 29.47 827 24.42 13.7 56.6 65 7.2 45
24:00 998 29.47 827 24.42 13.6 56.5 65 7.2 45